Time;durP1;ratioP1;P1;durP2;ratioP2;P2;SDS_P1;SDS_P2;PMS_P1;PMS_P2;Temp;Humidity;BMP_temperature;BMP_pressure;BME280_temperature;BME280_humidity;BME280_pressure;Samples;Min_cycle;Max_cycle;Signal;HPM_P1;HPM_P2
2022/07/15 00:02:42;;;;;;;13.27;5.53;;;;;;;17.60;78.20;100397.91;10338928;28;20431;-73
2022/07/15 00:07:43;;;;;;;25.55;5.82;;;;;;;17.45;78.81;100371.31;10338135;28;20387;-73
2022/07/15 00:12:58;;;;;;;17.42;5.10;;;;;;;17.19;81.70;100349.91;10338133;28;20069;-72
2022/07/15 00:18:03;;;;;;;23.35;5.55;;;;;;;17.38;79.85;100393.84;10337605;28;20089;-72
2022/07/15 00:23:05;;;;;;;14.48;5.38;;;;;;;17.30;80.47;100406.47;10336986;28;20046;-72
2022/07/15 00:28:08;;;;;;;12.40;5.32;;;;;;;17.15;80.64;100389.78;10337089;28;20073;-72
2022/07/15 00:33:10;;;;;;;51.55;8.77;;;;;;;17.25;80.24;100408.94;10336871;28;20058;-72
2022/07/15 00:38:11;;;;;;;27.48;6.18;;;;;;;17.09;80.84;100396.81;10336450;28;20053;-72
2022/07/15 00:43:13;;;;;;;17.58;5.53;;;;;;;17.14;81.06;100398.03;10337357;28;20047;-73
2022/07/15 00:48:14;;;;;;;9.40;5.18;;;;;;;17.16;81.16;100417.44;10336410;28;20034;-73
2022/07/15 00:53:18;;;;;;;9.15;5.38;;;;;;;17.21;82.01;100418.47;10336380;28;20279;-72
2022/07/15 00:58:23;;;;;;;10.95;5.00;;;;;;;17.30;82.80;100421.75;10335066;28;20046;-72
2022/07/15 01:03:27;;;;;;;15.68;5.53;;;;;;;17.17;82.30;100411.88;10335378;28;20042;-72
2022/07/15 01:08:28;;;;;;;25.75;6.15;;;;;;;17.12;81.55;100430.47;10336631;28;20066;-73
2022/07/15 01:13:29;;;;;;;40.42;6.53;;;;;;;17.14;81.65;100431.09;10335866;28;20084;-72
2022/07/15 01:18:30;;;;;;;30.58;7.07;;;;;;;16.98;81.94;100437.69;10335983;28;20038;-73
2022/07/15 01:23:30;;;;;;;30.20;6.97;;;;;;;16.98;82.35;100443.06;10335121;28;20042;-73
2022/07/15 01:28:31;;;;;;;18.80;5.93;;;;;;;16.93;82.02;100442.88;10335135;28;20040;-73
2022/07/15 01:33:33;;;;;;;28.08;6.03;;;;;;;16.92;82.50;100460.00;10334064;28;20529;-73
2022/07/15 01:38:34;;;;;;;27.70;5.90;;;;;;;16.71;82.85;100430.66;10333539;28;20120;-73
2022/07/15 01:43:35;;;;;;;11.63;4.57;;;;;;;16.86;83.05;100455.44;10333921;28;20042;-73
2022/07/15 01:53:56;;;;;;;16.88;5.35;;;;;;;16.88;83.07;100474.84;10334031;28;20046;-73
2022/07/15 01:58:57;;;;;;;9.73;5.15;;;;;;;16.85;83.06;100470.72;10332735;28;20046;-73
2022/07/15 02:03:58;;;;;;;25.38;5.47;;;;;;;16.25;83.20;100349.16;10333498;28;20038;-72
2022/07/15 02:08:58;;;;;;;44.05;6.55;;;;;;;16.80;82.78;100424.91;10333218;28;20046;-73
2022/07/15 02:14:00;;;;;;;21.55;5.47;;;;;;;17.08;82.49;100450.69;10332786;28;20517;-73
2022/07/15 02:19:01;;;;;;;14.82;4.97;;;;;;;17.38;82.59;100456.44;10333041;28;20046;-72
2022/07/15 02:24:03;;;;;;;29.10;6.55;;;;;;;17.61;82.36;100461.31;10332327;28;20069;-73
2022/07/15 02:29:04;;;;;;;25.83;5.90;;;;;;;17.89;82.05;100500.53;10332112;28;20038;-73
2022/07/15 02:34:05;;;;;;;44.17;6.28;;;;;;;17.31;82.34;100356.28;10332179;28;20058;-72
2022/07/15 02:39:06;;;;;;;14.10;5.55;;;;;;;18.31;81.38;100468.69;10332255;28;20073;-72
2022/07/15 02:44:07;;;;;;;11.55;5.45;;;;;;;18.79;81.20;100490.56;10332337;28;20058;-73
2022/07/15 02:49:09;;;;;;;23.73;5.75;;;;;;;19.30;80.23;100492.22;10332143;28;20043;-73
2022/07/15 02:54:10;;;;;;;25.98;6.43;;;;;;;19.76;78.93;100471.25;10331494;28;20057;-73
2022/07/15 02:59:10;;;;;;;11.45;5.80;;;;;;;20.44;76.57;100473.66;10332373;28;20045;-72
2022/07/15 03:04:11;;;;;;;10.90;4.68;;;;;;;20.96;73.12;100416.38;10331857;28;20121;-73
2022/07/15 03:09:12;;;;;;;10.25;4.35;;;;;;;21.92;70.20;100480.91;10331231;28;20042;-73
2022/07/15 03:14:13;;;;;;;13.57;4.70;;;;;;;21.21;68.20;100340.53;10331114;28;20046;-73
2022/07/15 03:19:14;;;;;;;13.32;4.80;;;;;;;22.89;65.52;100466.47;10331400;28;20517;-73
2022/07/15 03:24:15;;;;;;;17.65;4.82;;;;;;;22.79;63.36;100381.28;10317107;28;20046;-73
2022/07/15 03:29:16;;;;;;;12.50;3.80;;;;;;;24.71;59.63;100468.25;10319465;28;20124;-73
2022/07/15 03:34:17;;;;;;;12.88;3.88;;;;;;;25.93;56.15;100454.59;10339176;28;20595;-73
2022/07/15 03:39:17;;;;;;;10.10;3.83;;;;;;;26.92;53.53;100454.47;10321827;28;20384;-73
2022/07/15 03:44:18;;;;;;;13.07;3.95;;;;;;;27.74;51.79;100447.75;10298730;28;20051;-73
2022/07/15 03:49:19;;;;;;;5.88;3.05;;;;;;;28.66;49.26;100455.44;10298072;28;20068;-73
2022/07/15 03:54:20;;;;;;;14.35;2.95;;;;;;;28.95;46.63;100364.38;10326003;28;20414;-73
2022/07/15 03:59:21;;;;;;;10.40;2.60;;;;;;;29.01;45.03;100344.06;10338445;28;20046;-73
2022/07/15 04:04:22;;;;;;;7.72;2.22;;;;;;;29.76;44.20;100447.47;10333304;28;20514;-73
2022/07/15 04:09:23;;;;;;;8.05;1.98;;;;;;;28.74;43.98;100335.63;10337298;28;20168;-73
2022/07/15 04:14:23;;;;;;;13.40;1.98;;;;;;;29.26;43.40;100403.19;10334847;28;20038;-73
2022/07/15 04:19:24;;;;;;;9.98;1.95;;;;;;;29.09;42.72;100338.00;10338850;28;20049;-73
2022/07/15 04:24:26;;;;;;;7.68;1.70;;;;;;;29.66;41.92;100411.22;10334034;28;20084;-72
2022/07/15 04:29:26;;;;;;;2.67;1.50;;;;;;;29.36;42.02;100388.56;10335788;28;20038;-72
2022/07/15 04:34:27;;;;;;;8.50;2.42;;;;;;;29.51;41.77;100426.69;10334608;28;20454;-71
2022/07/15 04:39:28;;;;;;;7.60;1.98;;;;;;;27.77;42.88;100217.91;10337051;28;20045;-75
2022/07/15 04:44:29;;;;;;;5.60;2.35;;;;;;;28.71;43.61;100412.75;10329576;28;20073;-74
2022/07/15 04:54:50;;;;;;;5.13;1.80;;;;;;;27.80;44.00;100314.03;10336014;28;20050;-74
2022/07/15 04:59:51;;;;;;;4.65;1.60;;;;;;;27.41;44.19;100298.41;10334992;28;20085;-74
2022/07/15 05:04:51;;;;;;;12.63;2.33;;;;;;;28.09;43.51;100391.38;10336125;28;20046;-76
2022/07/15 05:09:52;;;;;;;17.95;1.98;;;;;;;28.29;44.14;100400.50;10335940;28;20125;-74
2022/07/15 05:14:53;;;;;;;4.57;1.20;;;;;;;27.95;42.85;100388.44;10335831;28;20161;-74
2022/07/15 05:19:54;;;;;;;7.53;1.52;;;;;;;28.11;43.17;100391.06;10334758;28;20046;-75
2022/07/15 05:24:55;;;;;;;11.93;1.95;;;;;;;27.28;42.64;100262.47;10334726;28;20034;-76
2022/07/15 05:29:56;;;;;;;10.55;1.67;;;;;;;27.80;43.19;100368.63;10334327;28;20046;-76
2022/07/15 05:34:57;;;;;;;9.45;1.90;;;;;;;26.78;43.21;100242.47;10334594;28;20088;-75
2022/07/15 05:39:58;;;;;;;13.45;1.60;;;;;;;27.68;42.42;100367.00;10334592;28;20042;-75
2022/07/15 05:45:00;;;;;;;9.77;1.58;;;;;;;27.75;41.82;100381.13;10333244;28;20042;-74
2022/07/15 05:50:01;;;;;;;5.03;1.27;;;;;;;27.60;41.36;100356.66;10334286;28;20046;-74
2022/07/15 05:55:02;;;;;;;3.53;1.20;;;;;;;27.56;40.89;100358.34;10334005;28;20049;-72
2022/07/15 06:00:04;;;;;;;8.32;1.50;;;;;;;27.59;40.98;100359.69;10333454;28;20050;-73
2022/07/15 06:05:06;;;;;;;4.25;1.17;;;;;;;27.73;40.65;100345.16;10333560;28;20045;-74
2022/07/15 06:10:08;;;;;;;8.80;1.75;;;;;;;27.84;41.49;100339.63;10333526;28;20415;-76
2022/07/15 06:15:09;;;;;;;2.63;1.30;;;;;;;27.26;40.63;100203.84;10333486;28;20180;-74
2022/07/15 06:20:11;;;;;;;6.85;1.40;;;;;;;28.45;40.56;100333.75;10332587;28;20180;-74
2022/07/15 06:25:12;;;;;;;4.85;1.20;;;;;;;28.34;40.29;100321.25;10332344;28;20088;-73
2022/07/15 06:30:13;;;;;;;8.18;1.95;;;;;;;28.43;40.13;100322.28;10332904;28;20046;-74
2022/07/15 06:35:14;;;;;;;5.20;1.58;;;;;;;27.85;39.84;100223.88;10331832;28;20171;-73
2022/07/15 06:40:15;;;;;;;7.00;1.48;;;;;;;27.80;39.38;100207.56;10332588;28;20145;-73
2022/07/15 06:45:16;;;;;;;11.63;1.80;;;;;;;28.79;39.92;100316.44;10333154;28;20038;-75
2022/07/15 06:50:17;;;;;;;8.27;1.40;;;;;;;28.74;39.31;100314.56;10332136;28;20057;-74
2022/07/15 06:55:18;;;;;;;5.45;1.50;;;;;;;28.54;38.93;100298.38;10330600;28;20046;-73
2022/07/15 07:00:18;;;;;;;4.32;1.48;;;;;;;28.50;39.30;100268.09;10331286;28;20477;-74
2022/07/15 07:05:19;;;;;;;11.00;1.40;;;;;;;28.84;38.51;100286.31;10331836;28;20093;-73
2022/07/15 07:10:20;;;;;;;5.72;1.40;;;;;;;28.98;38.19;100300.09;10331132;28;20477;-71
2022/07/15 07:15:23;;;;;;;6.63;2.35;;;;;;;29.20;37.99;100285.91;10330936;28;20084;-71
2022/07/15 07:20:24;;;;;;;6.03;1.60;;;;;;;29.35;37.20;100263.81;10331032;28;20411;-71
2022/07/15 07:25:25;;;;;;;8.77;1.33;;;;;;;29.58;37.35;100270.31;10363286;28;20042;-70
2022/07/15 07:30:27;;;;;;;9.75;1.50;;;;;;;29.81;37.46;100276.84;10331284;28;20042;-71
2022/07/15 07:35:27;;;;;;;4.53;1.17;;;;;;;29.67;36.23;100229.41;10331415;28;20062;-74
2022/07/15 07:40:28;;;;;;;16.35;2.15;;;;;;;29.75;36.96;100191.22;10331228;28;20046;-74
2022/07/15 07:45:29;;;;;;;5.05;1.40;;;;;;;30.34;36.13;100257.34;10331190;28;20046;-71
2022/07/15 07:50:30;;;;;;;7.05;1.30;;;;;;;30.34;35.87;100251.88;10330896;28;20056;-71
2022/07/15 07:55:31;;;;;;;8.65;1.65;;;;;;;30.32;35.58;100242.31;10330287;28;20096;-72
2022/07/15 08:00:34;;;;;;;8.85;1.70;;;;;;;30.31;35.89;100230.53;10330382;28;20368;-73
2022/07/15 08:05:34;;;;;;;;;;;;;;;30.76;34.95;100243.66;10333050;28;20125;-73
2022/07/15 08:10:35;;;;;;;14.57;1.50;;;;;;;30.52;35.60;100235.66;10337990;28;20008;-72
2022/07/15 08:15:36;;;;;;;5.80;1.40;;;;;;;30.16;34.76;100196.00;10337326;28;20046;-73
2022/07/15 08:20:37;;;;;;;10.20;1.75;;;;;;;30.65;36.93;100223.84;10337712;28;20070;-73
2022/07/15 08:25:38;;;;;;;4.93;1.65;;;;;;;30.96;35.97;100215.00;10337543;28;20505;-77
2022/07/15 08:30:39;;;;;;;4.38;1.38;;;;;;;30.90;34.56;100214.31;10337586;28;20074;-75
2022/07/15 08:35:41;;;;;;;6.45;1.50;;;;;;;30.90;35.45;100204.16;10336900;28;20129;-73
2022/07/15 08:40:43;;;;;;;8.20;1.73;;;;;;;31.03;34.82;100190.72;10336528;28;20570;-73
2022/07/15 08:45:44;;;;;;;15.68;2.42;;;;;;;31.33;34.81;100184.53;10336260;28;20153;-74
2022/07/15 08:50:45;;;;;;;7.20;1.50;;;;;;;30.80;34.17;100041.75;10336908;28;20121;-73
2022/07/15 08:55:46;;;;;;;10.32;1.60;;;;;;;31.79;33.88;100185.34;10336249;28;20093;-73
2022/07/15 09:00:47;;;;;;;8.07;1.95;;;;;;;31.93;34.00;100172.38;10336312;28;20073;-72
2022/07/15 09:05:48;;;;;;;14.30;1.90;;;;;;;31.81;33.71;100090.53;10335470;28;20113;-74
2022/07/15 09:11:00;;;;;;;4.53;1.40;;;;;;;32.21;32.55;100152.94;10335928;28;20038;-75
2022/07/15 09:16:08;;;;;;;13.63;1.60;;;;;;;31.27;32.63;100058.72;10334293;28;20392;-72
2022/07/15 09:21:25;;;;;;;11.55;1.98;;;;;;;31.87;33.13;100175.56;10367418;28;20034;-76
2022/07/15 09:26:26;;;;;;;24.83;1.83;;;;;;;31.82;33.37;100154.50;10335259;28;20038;-77
2022/07/15 09:36:57;;;;;;;6.43;1.40;;;;;;;31.89;33.05;100140.31;10335015;28;20093;-73
2022/07/15 09:42:06;;;;;;;5.88;1.58;;;;;;;32.10;33.74;100119.47;10334643;28;20046;-74
2022/07/15 09:47:18;;;;;;;5.20;1.35;;;;;;;32.11;32.49;100129.31;10334418;28;20073;-75
2022/07/15 09:52:19;;;;;;;6.53;1.70;;;;;;;31.95;32.40;100101.47;10333717;28;20093;-75
2022/07/15 09:57:21;;;;;;;10.60;1.73;;;;;;;31.63;33.02;99983.69;10333442;28;20038;-75
2022/07/15 10:02:23;;;;;;;5.65;1.60;;;;;;;32.31;32.32;100097.69;10333360;28;20066;-75
2022/07/15 10:07:26;;;;;;;6.80;1.60;;;;;;;32.33;33.35;100100.13;10334567;28;20141;-76
2022/07/15 10:12:38;;;;;;;12.70;1.67;;;;;;;32.37;32.86;100090.09;10333451;28;20057;-75
2022/07/15 10:18:21;;;;;;;7.88;1.63;;;;;;;31.99;32.05;99980.75;10333353;28;20497;-74
2022/07/15 10:23:52;;;;;;;16.83;1.92;;;;;;;32.65;31.64;100083.22;10332580;28;20486;-73
2022/07/15 10:29:04;;;;;;;18.83;2.17;;;;;;;32.61;32.53;100063.00;10331960;28;20046;-74
2022/07/15 10:34:11;;;;;;;10.60;1.90;;;;;;;32.88;30.54;100070.13;10332546;28;20343;-76
2022/07/15 10:39:17;;;;;;;9.50;1.80;;;;;;;32.60;31.00;100071.56;10332152;28;20792;-74
2022/07/15 10:44:18;;;;;;;9.70;1.55;;;;;;;32.56;31.73;100057.66;10333277;28;20077;-76
2022/07/15 10:49:19;;;;;;;10.02;2.08;;;;;;;31.98;32.19;99929.66;10332277;28;20038;-75
2022/07/15 10:54:20;;;;;;;10.18;1.90;;;;;;;32.81;31.59;100055.22;10331506;28;20129;-76
2022/07/15 10:59:24;;;;;;;13.25;2.22;;;;;;;32.80;31.34;100037.13;10332164;28;20175;-75
2022/07/15 11:04:30;;;;;;;33.50;3.17;;;;;;;32.63;31.88;100015.91;10331551;28;20046;-74
2022/07/15 11:09:50;;;;;;;9.55;1.77;;;;;;;32.62;31.10;100047.31;10332856;28;20124;-75
2022/07/15 11:14:54;;;;;;;5.22;1.50;;;;;;;32.33;32.11;100039.63;10332053;28;20058;-74
2022/07/15 11:20:01;;;;;;;14.43;2.03;;;;;;;32.25;31.44;100038.50;10331571;28;20038;-75
2022/07/15 11:25:04;;;;;;;10.10;1.75;;;;;;;31.47;32.09;99925.63;10331534;28;20049;-76
2022/07/15 11:30:07;;;;;;;7.40;1.90;;;;;;;31.34;33.03;99906.22;10330146;28;20038;-76
2022/07/15 11:35:08;;;;;;;9.50;2.65;;;;;;;32.32;32.85;100016.84;10330540;28;20058;-77
2022/07/15 11:45:38;;;;;;;10.95;2.17;;;;;;;32.67;31.85;99995.72;10337222;28;20533;-79
2022/07/15 11:50:58;;;;;;;24.58;2.42;;;;;;;32.06;32.78;99909.63;10339341;28;20042;-76
2022/07/15 11:55:59;;;;;;;41.95;3.20;;;;;;;31.83;33.21;99912.50;10338943;28;20057;-75
2022/07/15 12:01:16;;;;;;;10.95;1.98;;;;;;;32.14;32.54;100010.50;10356621;28;20043;-75
2022/07/15 12:06:22;;;;;;;7.45;2.40;;;;;;;32.49;32.75;100000.41;10329271;28;20144;-75
2022/07/15 12:11:30;;;;;;;9.30;2.10;;;;;;;32.55;32.88;99998.31;10337364;28;20520;-74
2022/07/15 12:16:41;;;;;;;7.57;1.80;;;;;;;32.25;32.72;100000.84;10333246;28;20046;-74
2022/07/15 12:21:44;;;;;;;10.80;2.33;;;;;;;31.19;33.05;99873.69;10334698;28;20462;-74
2022/07/15 12:26:50;;;;;;;;;;;;;;;32.22;33.19;99989.69;10335524;28;20038;-76
2022/07/15 12:31:59;;;;;;;8.88;1.92;;;;;;;32.16;32.14;99979.94;10334453;28;19926;-76
2022/07/15 12:37:01;;;;;;;10.73;2.13;;;;;;;31.91;32.82;99968.59;10333128;28;20057;-77
2022/07/15 12:42:04;;;;;;;7.10;2.03;;;;;;;31.70;33.78;99968.34;10334375;28;20034;-76
2022/07/15 12:47:06;;;;;;;16.83;2.15;;;;;;;31.63;33.55;99979.00;10334481;28;20046;-76
2022/07/15 12:52:32;;;;;;;4.68;1.70;;;;;;;30.98;34.62;99869.91;10336441;28;20054;-76
2022/07/15 12:57:35;;;;;;;22.52;2.40;;;;;;;31.90;33.19;99957.94;10336398;28;20376;-77
2022/07/15 13:03:10;;;;;;;9.82;1.90;;;;;;;32.39;32.44;99975.13;10336254;28;20053;-77
2022/07/15 13:08:15;;;;;;;15.85;2.92;;;;;;;32.57;32.14;99973.22;10332272;28;20593;-75
2022/07/15 13:13:19;;;;;;;14.38;2.70;;;;;;;32.77;32.12;99971.75;10334820;28;20049;-74
2022/07/15 13:18:21;;;;;;;6.05;2.30;;;;;;;31.95;32.50;99878.13;10333001;28;20088;-77
2022/07/15 13:23:23;;;;;;;9.50;2.47;;;;;;;31.99;32.52;99945.03;10333175;28;20050;-78
2022/07/15 13:28:24;;;;;;;10.60;2.33;;;;;;;31.86;33.45;99963.25;10335252;28;20039;-78
2022/07/15 13:33:25;;;;;;;8.52;2.10;;;;;;;31.79;33.36;99952.72;10334414;28;20104;-76
2022/07/15 13:38:26;;;;;;;10.55;2.58;;;;;;;31.48;33.77;99908.06;10333438;28;20104;-76
2022/07/15 13:43:27;;;;;;;11.68;2.20;;;;;;;31.68;33.09;99948.66;10332397;28;20137;-77
2022/07/15 13:48:27;;;;;;;12.73;2.03;;;;;;;31.38;33.33;99909.13;10332890;28;20046;-77
2022/07/15 13:53:28;;;;;;;6.13;1.85;;;;;;;31.73;33.85;99918.28;10332885;28;20049;-76
2022/07/15 13:58:29;;;;;;;8.13;1.92;;;;;;;30.45;33.06;99720.78;10334681;28;20046;-75
2022/07/15 14:03:30;;;;;;;23.58;2.40;;;;;;;31.60;32.66;99922.78;10333920;28;20050;-75
2022/07/15 14:08:31;;;;;;;5.20;1.88;;;;;;;31.28;32.99;99879.22;10333274;28;20498;-76
2022/07/15 14:13:32;;;;;;;6.53;1.80;;;;;;;31.52;32.74;99923.56;10333398;28;20046;-75
2022/07/15 14:18:48;;;;;;;15.65;2.25;;;;;;;31.63;32.82;99924.09;10332854;28;20120;-75
2022/07/15 14:23:49;;;;;;;15.32;2.42;;;;;;;31.09;32.67;99805.41;10364572;28;20049;-75
2022/07/15 14:28:50;;;;;;;10.23;2.28;;;;;;;31.21;32.23;99811.09;10329840;28;20038;-77
2022/07/15 14:33:51;;;;;;;5.45;1.60;;;;;;;31.90;32.50;99905.75;10332188;28;20049;-75
2022/07/15 14:38:52;;;;;;;19.27;1.85;;;;;;;31.89;32.29;99923.31;10333074;28;20042;-76
2022/07/15 14:43:53;;;;;;;10.35;2.45;;;;;;;31.60;33.11;99913.75;10331889;28;20042;-75
2022/07/15 14:48:54;;;;;;;8.07;1.83;;;;;;;31.29;33.14;99911.84;10331858;28;20414;-75
2022/07/15 14:53:55;;;;;;;13.68;2.38;;;;;;;31.22;33.17;99919.72;10331853;28;20100;-74
2022/07/15 14:58:56;;;;;;;14.57;2.42;;;;;;;31.03;33.10;99878.81;10331707;28;20066;-76
2022/07/15 15:03:56;;;;;;;14.88;3.88;;;;;;;31.23;33.01;99907.63;10332471;28;20042;-75
2022/07/15 15:08:58;;;;;;;9.60;2.85;;;;;;;31.19;33.20;99898.41;10331827;28;20117;-76
2022/07/15 15:14:01;;;;;;;30.60;3.40;;;;;;;31.25;33.39;99910.84;10331592;28;20038;-74
2022/07/15 15:19:02;;;;;;;9.77;3.35;;;;;;;31.18;32.84;99905.03;10339767;28;20421;-75
2022/07/15 15:24:03;;;;;;;100.13;8.63;;;;;;;30.42;33.34;99796.22;10339861;28;20042;-75
2022/07/15 15:29:04;;;;;;;13.43;2.22;;;;;;;30.98;32.95;99903.63;10339606;28;20038;-75
2022/07/15 15:34:05;;;;;;;11.63;2.33;;;;;;;30.58;32.96;99842.41;10339378;28;20073;-74
2022/07/15 15:39:06;;;;;;;15.52;2.38;;;;;;;30.59;33.25;99858.53;10339524;28;20491;-75
2022/07/15 15:44:07;;;;;;;15.57;4.18;;;;;;;30.61;32.93;99877.44;10338592;28;20069;-74
2022/07/15 15:49:08;;;;;;;13.60;4.72;;;;;;;30.69;33.40;99898.59;10328658;28;20460;-75
2022/07/15 15:54:09;;;;;;;18.95;4.07;;;;;;;29.88;33.20;99789.03;10338356;28;20088;-76
2022/07/15 15:59:10;;;;;;;9.70;2.30;;;;;;;30.51;33.24;99910.56;10338001;28;20062;-72
2022/07/15 16:04:11;;;;;;;16.42;5.20;;;;;;;30.33;33.81;99904.13;10370095;28;20125;-74
2022/07/15 16:09:11;;;;;;;25.17;2.90;;;;;;;30.22;33.60;99906.34;10333672;28;20050;-75
2022/07/15 16:14:12;;;;;;;17.88;4.05;;;;;;;30.00;33.87;99896.94;10337263;28;20133;-73
2022/07/15 16:19:13;;;;;;;22.27;5.45;;;;;;;29.85;34.14;99886.28;10337904;28;20402;-73
2022/07/15 16:24:14;;;;;;;21.58;4.40;;;;;;;29.90;33.99;99905.34;10336759;28;20165;-75
2022/07/15 16:29:15;;;;;;;22.42;6.40;;;;;;;29.80;34.17;99906.41;10335738;28;20038;-74
2022/07/15 16:34:16;;;;;;;15.50;6.63;;;;;;;29.67;34.18;99893.53;10334179;28;20545;-75
2022/07/15 16:39:17;;;;;;;9.50;2.95;;;;;;;29.45;34.55;99888.75;10337544;28;20050;-74
2022/07/15 16:44:17;;;;;;;8.07;2.25;;;;;;;29.40;34.79;99904.47;10337418;28;20038;-75
2022/07/15 16:49:18;;;;;;;7.30;1.85;;;;;;;29.26;34.82;99897.09;10336119;28;20041;-75
2022/07/15 16:54:19;;;;;;;10.68;2.20;;;;;;;29.09;35.10;99900.41;10335927;28;20046;-74
2022/07/15 16:59:21;;;;;;;9.93;2.22;;;;;;;28.95;35.21;99915.94;10335772;28;20046;-74
2022/07/15 17:04:22;;;;;;;9.27;2.05;;;;;;;28.64;35.55;99891.88;10336564;28;20044;-74
2022/07/15 17:09:23;;;;;;;11.50;2.35;;;;;;;28.21;35.87;99852.97;10335805;28;20411;-74
2022/07/15 17:14:24;;;;;;;11.90;2.72;;;;;;;28.44;35.95;99916.81;10335594;28;20073;-73
2022/07/15 17:19:25;;;;;;;29.40;4.38;;;;;;;28.11;36.67;99900.31;10325565;28;20038;-73
2022/07/15 17:24:26;;;;;;;14.93;4.88;;;;;;;27.95;36.57;99891.56;10334175;28;20050;-73
2022/07/15 17:29:27;;;;;;;16.20;4.53;;;;;;;27.93;36.70;99910.13;10366561;28;20050;-73
2022/07/15 17:34:27;;;;;;;15.75;2.90;;;;;;;27.72;37.04;99895.91;10333585;28;20151;-72
2022/07/15 17:39:28;;;;;;;7.22;2.03;;;;;;;27.73;37.56;99930.31;10333136;28;20053;-72
2022/07/15 17:44:29;;;;;;;10.75;2.88;;;;;;;27.64;37.99;99931.22;10366190;28;20053;-73
2022/07/15 17:49:30;;;;;;;21.10;2.10;;;;;;;27.61;38.00;99929.91;10335007;28;20442;-73
2022/07/15 17:54:32;;;;;;;15.88;2.65;;;;;;;27.62;38.18;99928.81;10330004;28;20167;-72
2022/07/15 17:59:34;;;;;;;21.67;2.55;;;;;;;27.47;38.31;99913.44;10334107;28;20046;-73
2022/07/15 18:04:35;;;;;;;12.63;2.38;;;;;;;27.53;38.64;99925.91;10333241;28;20128;-74
2022/07/15 18:09:36;;;;;;;11.95;2.80;;;;;;;26.89;39.04;99830.88;10332569;28;20129;-71
2022/07/15 18:14:37;;;;;;;17.52;3.08;;;;;;;27.20;38.82;99888.66;10332483;28;20421;-71
2022/07/15 18:19:37;;;;;;;24.42;3.25;;;;;;;27.10;39.10;99886.78;10316803;28;20133;-72
2022/07/15 18:24:38;;;;;;;39.75;3.78;;;;;;;27.30;39.47;99916.59;10329627;28;20569;-71
2022/07/15 18:29:39;;;;;;;35.08;3.75;;;;;;;26.53;39.39;99801.25;10330301;28;20038;-71
2022/07/15 18:34:40;;;;;;;32.13;3.97;;;;;;;27.07;39.39;99887.38;10329658;28;20070;-71
2022/07/15 18:39:41;;;;;;;34.83;4.50;;;;;;;27.14;39.56;99912.41;10330093;28;20052;-71
2022/07/15 18:44:43;;;;;;;33.78;3.40;;;;;;;26.98;39.89;99900.00;10329819;28;20050;-72
2022/07/15 18:49:44;;;;;;;16.02;2.63;;;;;;;26.39;40.08;99807.34;10329446;28;20046;-72
2022/07/15 18:54:45;;;;;;;17.13;3.05;;;;;;;27.07;40.26;99920.09;10329625;28;20073;-71
2022/07/15 18:59:46;;;;;;;12.95;2.15;;;;;;;27.08;40.75;99913.56;10330527;28;20050;-71
2022/07/15 19:04:47;;;;;;;10.23;2.35;;;;;;;27.01;40.81;99908.44;10328908;28;20046;-71
2022/07/15 19:09:48;;;;;;;9.43;2.03;;;;;;;26.94;41.63;99916.13;10330378;28;20093;-72
2022/07/15 19:14:49;;;;;;;13.10;3.03;;;;;;;26.90;41.97;99926.00;10327203;28;20141;-72
2022/07/15 19:19:50;;;;;;;11.80;1.90;;;;;;;26.83;42.28;99915.44;10329182;28;20042;-72
2022/07/15 19:24:50;;;;;;;14.35;2.40;;;;;;;25.43;42.59;99703.56;10330848;28;20050;-71
2022/07/15 19:29:51;;;;;;;14.13;2.58;;;;;;;26.52;42.87;99900.44;10353426;28;20101;-71
2022/07/15 19:34:52;;;;;;;17.20;2.53;;;;;;;25.80;43.24;99805.59;10331803;28;20058;-72
2022/07/15 19:39:53;;;;;;;14.35;2.05;;;;;;;26.27;43.42;99896.78;10331260;28;20050;-72
2022/07/15 19:44:55;;;;;;;18.73;2.63;;;;;;;26.28;44.37;99922.09;10331704;28;20038;-72
2022/07/15 19:49:56;;;;;;;13.85;2.00;;;;;;;26.19;44.30;99913.69;10331254;28;20514;-72
2022/07/15 19:54:57;;;;;;;13.25;2.40;;;;;;;25.69;44.60;99858.44;10331299;28;20104;-71
2022/07/15 20:00:16;;;;;;;11.57;2.08;;;;;;;25.70;45.04;99884.56;10330462;28;20034;-72
2022/07/15 20:05:18;;;;;;;5.43;1.83;;;;;;;25.74;44.92;99899.22;10339423;28;20133;-72
2022/07/15 20:10:20;;;;;;;14.23;1.85;;;;;;;25.70;45.44;99915.28;10337668;28;20038;-72
2022/07/15 20:15:21;;;;;;;14.38;2.17;;;;;;;25.25;45.59;99867.34;10337959;28;20053;-71
2022/07/15 20:20:24;;;;;;;17.10;1.92;;;;;;;24.99;46.17;99842.91;10337916;28;20038;-71
2022/07/15 20:25:27;;;;;;;8.13;1.92;;;;;;;24.78;46.23;99808.72;10337070;28;20050;-72
2022/07/15 20:30:28;;;;;;;11.45;2.20;;;;;;;25.37;46.67;99922.22;10338447;28;20071;-72
2022/07/15 20:35:29;;;;;;;13.27;2.08;;;;;;;25.25;46.88;99925.25;10337157;28;20058;-71
2022/07/15 20:40:29;;;;;;;16.60;2.55;;;;;;;25.17;46.92;99922.25;10368638;28;20510;-71
2022/07/15 20:45:30;;;;;;;14.38;2.22;;;;;;;23.98;46.76;99730.59;10336909;28;20042;-72
2022/07/15 20:50:32;;;;;;;21.55;2.85;;;;;;;24.94;47.08;99894.53;10336840;28;20477;-72
2022/07/15 20:55:33;;;;;;;24.98;2.92;;;;;;;24.94;47.57;99905.41;10335967;28;20529;-71
2022/07/15 21:00:35;;;;;;;20.08;2.65;;;;;;;24.84;48.18;99905.44;10336301;28;20043;-71
2022/07/15 21:05:36;;;;;;;11.82;2.20;;;;;;;24.77;47.71;99902.19;10336318;28;20090;-71
2022/07/15 21:10:37;;;;;;;7.28;1.90;;;;;;;24.65;47.90;99896.19;10336602;28;20515;-72
2022/07/15 21:15:38;;;;;;;11.52;2.05;;;;;;;24.40;48.08;99867.91;10333957;28;20499;-71
2022/07/15 21:20:38;;;;;;;10.65;2.60;;;;;;;24.26;48.28;99864.09;10336345;28;20042;-71
2022/07/15 21:30:59;;;;;;;21.52;2.53;;;;;;;23.55;49.22;99762.53;10335619;28;20120;-71
2022/07/15 21:36:00;;;;;;;12.82;2.00;;;;;;;23.67;49.06;99801.06;10335326;28;20535;-71
2022/07/15 21:41:01;;;;;;;8.43;1.98;;;;;;;24.32;48.83;99888.28;10335049;28;20070;-71
2022/07/15 21:46:01;;;;;;;19.60;2.50;;;;;;;24.32;49.32;99892.88;10334092;28;20038;-71
2022/07/15 21:51:02;;;;;;;7.40;1.90;;;;;;;23.24;49.19;99729.94;10321452;28;20454;-71
2022/07/15 21:56:04;;;;;;;6.80;1.65;;;;;;;24.09;49.81;99884.19;10300686;28;20050;-72
2022/07/15 22:01:05;;;;;;;4.50;1.38;;;;;;;23.44;49.75;99793.41;10293826;28;20047;-71
2022/07/15 22:06:08;;;;;;;8.93;2.22;;;;;;;23.96;50.08;99890.13;10293007;28;20039;-71
2022/07/15 22:11:09;;;;;;;8.98;2.20;;;;;;;23.91;50.14;99888.22;10324677;28;20035;-71
2022/07/15 22:16:09;;;;;;;7.85;1.85;;;;;;;23.90;50.21;99892.00;10293161;28;20129;-71
2022/07/15 22:21:10;;;;;;;13.07;2.38;;;;;;;23.95;50.35;99901.25;10293968;28;20051;-71
2022/07/15 22:26:11;;;;;;;25.00;2.70;;;;;;;23.92;50.08;99899.88;10323802;28;20046;-71
2022/07/15 22:31:12;;;;;;;13.98;2.25;;;;;;;23.88;50.51;99893.34;10324700;28;20502;-71
2022/07/15 22:36:13;;;;;;;16.63;2.10;;;;;;;23.47;50.50;99842.47;10298834;28;20065;-71
2022/07/15 22:41:14;;;;;;;9.82;2.30;;;;;;;23.87;51.06;99897.13;10331527;28;20080;-71
2022/07/15 22:46:15;;;;;;;10.02;2.00;;;;;;;23.66;51.40;99888.94;10331874;28;20050;-71
2022/07/15 22:51:16;;;;;;;12.07;2.20;;;;;;;23.33;52.02;99873.03;10331594;28;20040;-71
2022/07/15 22:56:16;;;;;;;11.98;2.33;;;;;;;23.43;52.71;99900.22;10331413;28;20051;-71
2022/07/15 23:01:18;;;;;;;9.77;1.75;;;;;;;23.39;52.95;99909.94;10331359;28;20129;-71
2022/07/15 23:06:18;;;;;;;11.27;1.85;;;;;;;23.41;53.14;99913.19;10332293;28;20049;-71
2022/07/15 23:11:19;;;;;;;12.07;2.40;;;;;;;23.20;53.38;99885.97;10331628;28;20046;-71
2022/07/15 23:16:20;;;;;;;13.60;3.17;;;;;;;23.23;53.99;99899.00;10331566;28;20065;-71
2022/07/15 23:21:21;;;;;;;11.13;2.85;;;;;;;23.18;54.87;99896.28;10331263;28;20484;-71
2022/07/15 23:26:22;;;;;;;11.32;2.47;;;;;;;23.05;55.10;99896.72;10331084;28;20402;-71
2022/07/15 23:31:23;;;;;;;11.30;2.20;;;;;;;22.77;55.61;99870.78;10331369;28;20042;-71
2022/07/15 23:36:23;;;;;;;11.60;2.53;;;;;;;22.89;55.76;99905.81;10333424;28;20549;-71